METAR Data
IDs: Format: Raw Decoded Include TAF

Data at: 0739 UTC 18 Nov 2018

PAWI 180653Z AUTO 08011KT 10SM OVC009 M13/M15 A2973 RMK AO2 SLP070 T11281150 TSNO
PAWI 180620Z AUTO 09012KT 10SM OVC009 M13/M15 A2974 RMK AO2 T11281150 TSNO
PAWI 180553Z AUTO 09013KT 10SM OVC010 M13/M15 A2974 RMK AO2 SLP071 T11281150 11128 21139 56001 TSNO
PAWI 180515Z AUTO 08013KT 10SM OVC010 M13/M15 A2974 RMK AO2 T11281150 TSNO
PAWI 180453Z AUTO 08013KT 10SM OVC009 M13/M15 A2974 RMK AO2 SLP071 T11281150 TSNO
PAWI 180353Z AUTO 08013KT 10SM OVC009 M13/M15 A2974 RMK AO2 SLP072 T11281150 TSNO
PAWI 180253Z AUTO 08012KT 10SM OVC009 M13/M15 A2974 RMK AO2 SLP073 T11281150 56007 TSNO
PAWI 180244Z AUTO 07011KT 10SM OVC009 M13/M15 A2974 RMK AO2 T11281150 TSNO
PAWI 180153Z AUTO 08009KT 10SM OVC010 M13/M16 A2975 RMK AO2 SLP075 T11331156 TSNO
PAWI 180139Z AUTO 07010KT 10SM BKN010 M14/M16 A2975 RMK AO2 T11391156 TSNO
PAWI 180113Z AUTO 06011KT 10SM SCT011 M13/M16 A2975 RMK AO2 T11331156 TSNO
PAWI 180053Z AUTO 06012KT 10SM OVC011 M13/M15 A2975 RMK AO2 SLP074 T11281150 TSNO
PAWI 172353Z AUTO 06013KT 10SM OVC012 M13/M15 A2976 RMK AO2 SLP080 60000 T11281150 11122 21128 58006 TSNO
PAWI 172253Z AUTO 06015KT 10SM OVC011 M13/M15 A2978 RMK AO2 SLP084 T11281150 TSNO
PAWI 172153Z AUTO 06013KT 10SM OVC012 M13/M15 A2978 RMK AO2 SLP085 T11281150 TSNO
PAWI 172053Z AUTO 05010KT 10SM OVC012 M13/M15 A2978 RMK AO2 SLP086 60000 T11281150 58005 TSNO
PAWI 171953Z AUTO 06012KT 9SM OVC012 M12/M14 A2979 RMK AO2 UPB19E20B38E39SNE19B20E38B39E49 SLP088 P0000 T11221144 TSNO
PAWI 171853Z AUTO 07017KT 6SM -SN BR OVC012 M12/M14 A2979 RMK AO2 UPB05E28SNB28 SLP090 P0000 T11221144 TSNO
PAWI 171753Z AUTO 07016KT 8SM OVC012 M12/M14 A2980 RMK AO2 UPB03E11SNE03B40E49 SLP091 P0000 60000 T11221139 11122 21133 58010 TSNO
PAWI 171653Z AUTO 06016KT 7SM -SN OVC012 M12/M14 A2980 RMK AO2 UPB1554E06SNB10 SLP094 P0000 T11221144 TSNO
PAWI 171553Z AUTO 07016KT 8SM OVC012 M12/M14 A2982 RMK AO2 SNE17 SLP099 P0000 T11221144 TSNO
PAWI 171528Z AUTO 07015KT 9SM FEW005 OVC010 M13/M14 A2982 RMK AO2 SNE17 P0000 T11281144 TSNO
PAWI 171514Z AUTO 07016KT 5SM -SN BR OVC011 M12/M14 A2982 RMK AO2 P0000 T11221144 TSNO
PAWI 171453Z AUTO 07018KT 2 1/2SM -SN BR OVC011 M12/M14 A2983 RMK AO2 UPB13E46SNB46 SLP101 P0000 60000 T11221139 58010 TSNO
PAWI 171427Z AUTO 07017KT 4SM UP BR SCT003 OVC013 M13/M14 A2984 RMK AO2 UPB13 P0000 T11281144 TSNO
PAWI 171407Z AUTO 07016KT 4SM BR OVC003 M13/M15 A2984 RMK AO2 T11331150 TSNO
PAWI 171353Z AUTO 07017KT 4SM BR OVC004 M13/M15 A2984 RMK AO2 UPB16E28SNE1255B17E26 SLP107 P0000 T11331150 TSNO
PAWI 171342Z AUTO 06018KT 3SM BLSN BR BKN004 OVC010 M13/M15 A2984 RMK AO2 UPB16E28SNE1255B17E26 P0000 T11281150 TSNO
PAWI 171334Z AUTO 07018KT 3SM BLSN BR BKN003 OVC010 M13/M14 A2984 RMK AO2 UPB16E28SNE1255B17E26 P0000 T11281144 TSNO
PAWI 171310Z AUTO 07018KT 2 1/2SM BLSN BR OVC003 M13/M14 A2985 RMK AO2 SNE1255 P0000 T11281144 TSNO
PAWI 171301Z AUTO 07017KT 2 1/2SM BLSN BR BKN004 OVC010 M13/M14 A2985 RMK AO2 SNE1255 P0000 T11281144 TSNO
PAWI 171253Z AUTO 07018KT 1 3/4SM -SN BR BKN004 OVC009 M13/M14 A2985 RMK AO2 UPB1158E03SNB03 SLP111 P0000 T11281144 TSNO
PAWI 171250Z AUTO 07020KT 1 1/2SM -SN BR SCT004 OVC009 M12/M14 A2986 RMK AO2 UPB1158E03SNB03 P0000 TSNO
PAWI 171241Z AUTO 07019KT 2SM -SN BR OVC009 M12/M14 A2986 RMK AO2 UPB1158E03SNB03 CIG 005V011 P0000 T11221144 TSNO
PAWI 171213Z AUTO 08019KT 1 1/2SM -SN BR BKN005 OVC010 M12/M14 A2987 RMK AO2 UPB1158E03SNB03 CIG 003V007 P0000 T11221144 TSNO
PAWI 171205Z AUTO 08020KT 2SM -SN BR BKN005 OVC010 M12/M14 A2987 RMK AO2 UPB1158E03SNB03 P0000 T11221144 TSNO
PAWI 171153Z AUTO 07019KT 4SM BR BKN004 M13/M14 A2988 RMK AO2 SLP118 60000 T11281144 11117 21128 58013 TSNO
PAWI 171102Z AUTO 07019KT 6SM BR FEW006 SCT011 M12/M14 A2989 RMK AO2 T11221139 TSNO
PAWI 171053Z AUTO 07017KT 6SM BR FEW006 BKN011 M12/M14 A2990 RMK AO2 UPE01 SLP126 P0000 T11221139 TSNO
PAWI 171024Z AUTO 07017KT 4SM BR SCT005 OVC010 M12/M14 A2991 RMK AO2 UPE01 P0000 T11171139 TSNO
PAWI 170953Z AUTO 06019KT 4SM UP BR OVC004 M12/M14 A2991 RMK AO2 PK WND 07026/0914 SLP131 P0000 T11171139 TSNO
PAWI 170949Z AUTO 06019KT 3SM UP BR OVC004 M12/M14 A2992 RMK AO2 PK WND 07026/0914 P0000 TSNO
PAWI 170931Z AUTO 07019KT 2 1/2SM UP BR OVC004 M12/M14 A2993 RMK AO2 PK WND 07026/0914 P0000 T11171139 TSNO
PAWI 170853Z AUTO 07017KT 5SM UP BR OVC004 M12/M13 A2994 RMK AO2 UPB52 SLP139 P0000 60000 T11171133 410561122 56020 TSNO
PAWI 170835Z AUTO 07018KT 5SM BR BKN004 BKN008 M12/M13 A2994 RMK AO2 T11171133 TSNO
PAWI 170759Z AUTO 07017KT 8SM SCT004 SCT008 M12/M13 A2995 RMK AO2 T11171133 TSNO
PAWI 170753Z AUTO 07019KT 6SM BR BKN004 BKN008 M12/M13 A2996 RMK AO2 PK WND 07026/0739 UPB0656E50 SLP145 P0000 T11171133 TSNO
PAWI 170740Z AUTO 07021KT 4SM UP BR BKN004 OVC008 M12/M13 A2996 RMK AO2 PK WND 07026/0739 UPB0656 CIG 003V007 P0000 T11171133 TSNO
PAWI 170653Z AUTO 07020KT 5SM BR BKN003 M12/M14 A2998 RMK AO2 PK WND 07026/0631 SLP152 T11221139 TSNO
PAWI 170636Z AUTO 07021KT 4SM BR BKN003 M12/M14 A2998 RMK AO2 PK WND 07026/0631 T11221139 TSNO
PAWI 170606Z AUTO 08020KT 5SM BR FEW004 M12/M14 A2999 RMK AO2 T11171139 TSNO
PAWI 170553Z AUTO 07020KT 6SM BR CLR M12/M13 A3000 RMK AO2 PK WND 08027/0506 SLP159 T11171133 11072 21117 58017 TSNO
PAWI 170453Z AUTO 08022KT 9SM FEW120 M11/M13 A3001 RMK AO2 SLP165 T11111133 TSNO
PAWI 170353Z AUTO 07020KT 10SM FEW120 M10/M12 A3004 RMK AO2 SLP173 T11001122 TSNO
PAWI 170253Z AUTO 08020KT 10SM CLR M09/M12 A3005 RMK AO2 SLP176 T10941122 56020 TSNO
PAWI 170153Z AUTO 08017KT 10SM CLR M09/M11 A3007 RMK AO2 SLP183 T10891111 TSNO
PAWI 170128Z AUTO 08018KT 10SM FEW021 M08/M11 A3007 RMK AO2 T10831111 TSNO
PAWI 170053Z AUTO 07017KT 10SM OVC025 M08/M10 A3008 RMK AO2 SLP187 T10781100 TSNO
PAWI 162353Z AUTO 08017KT 10SM OVC023 M07/M09 A3011 RMK AO2 SLP196 T10721094 11061 21072 58022 TSNO
PAWI 162253Z AUTO 09013KT 10SM OVC021 M07/M09 A3013 RMK AO2 SLP205 T10671089 TSNO
PAWI 162153Z AUTO 08013KT 10SM OVC021 M07/M08 A3016 RMK AO2 SLP214 T10671083 TSNO
PAWI 162053Z AUTO 09010KT 10SM OVC021 M07/M08 A3017 RMK AO2 SLP218 T10671083 57008 TSNO
PAWI 161953Z AUTO 08010KT 10SM OVC022 M07/M09 A3018 RMK AO2 SLP220 T10671089 TSNO